Time;durP1;ratioP1;P1;durP2;ratioP2;P2;SDS_P1;SDS_P2;PMS_P1;PMS_P2;Temp;Humidity;BMP_temperature;BMP_pressure;BME280_temperature;BME280_humidity;BME280_pressure;Samples;Min_cycle;Max_cycle;Signal;HPM_P1;HPM_P2
2022/05/28 00:01:18;;;;;;;;;;;12.00;99.90;;;;;;4745115;30;19968;-87
2022/05/28 00:03:46;;;;;;;;;;;11.90;99.90;;;;;;4743985;30;19922;-87
2022/05/28 00:06:13;;;;;;;;;;;11.90;99.90;;;;;;4738062;30;19937;-88
2022/05/28 00:08:40;;;;;;;;;;;11.80;99.90;;;;;;4747112;30;19960;-89
2022/05/28 00:11:18;;;;;;;;;;;11.00;99.90;;;;;;4745713;30;20372;-88
2022/05/28 00:13:46;;;;;;;;;;;11.60;99.90;;;;;;4747079;30;19925;-88
2022/05/28 00:16:15;;;;;;;;;;;11.60;99.90;;;;;;4745605;30;19934;-89
2022/05/28 00:18:44;;;;;;;;;;;11.30;99.90;;;;;;4760448;30;19930;-88
2022/05/28 00:21:11;;;;;;;;;;;11.30;99.90;;;;;;4756274;30;19983;-88
2022/05/28 00:26:29;;;;;;;;;;;11.40;99.90;;;;;;4743931;30;19930;-89
2022/05/28 00:28:55;;;;;;;;;;;11.70;99.90;;;;;;4758143;30;19930;-90
2022/05/28 00:31:23;;;;;;;;;;;11.50;99.90;;;;;;4746482;30;20345;-89
2022/05/28 00:33:49;;;;;;;;;;;11.20;99.90;;;;;;4751205;30;20427;-88
2022/05/28 00:36:15;;;;;;;;;;;11.30;99.90;;;;;;4761626;30;19981;-88
2022/05/28 00:38:44;;;;;;;;;;;12.20;99.90;;;;;;4762695;30;20013;-88
2022/05/28 00:41:10;;;;;;;;;;;11.30;99.90;;;;;;4749933;30;19926;-88
2022/05/28 00:43:37;;;;;;;;;;;11.30;99.90;;;;;;4759249;30;19969;-88
2022/05/28 00:46:07;;;;;;;;;;;11.30;99.90;;;;;;4736590;30;20016;-88
2022/05/28 00:48:37;;;;;;;;;;;11.30;99.90;;;;;;4745129;30;19983;-88
2022/05/28 00:51:15;;;;;;;;;;;10.90;99.90;;;;;;4740099;30;20009;-88
2022/05/28 00:53:46;;;;;;;;;;;11.30;99.90;;;;;;4759823;30;19926;-89
2022/05/28 00:56:14;;;;;;;;;;;11.40;99.90;;;;;;4749669;30;20441;-88
2022/05/28 00:58:39;;;;;;;;;;;11.00;99.90;;;;;;4749872;30;19926;-89
2022/05/28 01:01:09;;;;;;;;;;;11.50;99.90;;;;;;4742131;30;20330;-88
2022/05/28 01:03:50;;;;;;;;;;;11.40;99.90;;;;;;4743951;30;19926;-89
2022/05/28 01:06:24;;;;;;;;;;;11.30;99.90;;;;;;4760115;30;19933;-88
2022/05/28 01:09:06;;;;;;;;;;;11.30;99.90;;;;;;4749486;30;19926;-89
2022/05/28 01:11:41;;;;;;;;;;;11.40;99.90;;;;;;4761058;30;19933;-88
2022/05/28 01:14:12;;;;;;;;;;;11.20;99.90;;;;;;4759156;30;20398;-89
2022/05/28 01:16:43;;;;;;;;;;;11.30;99.90;;;;;;4753586;30;19926;-89
2022/05/28 01:19:08;;;;;;;;;;;11.40;99.90;;;;;;4746990;30;19926;-88
2022/05/28 01:25:18;;;;;;;;;;;11.20;99.90;;;;;;4761328;30;19929;-88
2022/05/28 01:27:46;;;;;;;;;;;11.40;99.90;;;;;;4763006;30;20020;-89
2022/05/28 01:30:21;;;;;;;;;;;11.30;99.90;;;;;;4747009;30;19930;-88
2022/05/28 01:32:57;;;;;;;;;;;11.30;99.90;;;;;;4760015;30;19976;-88
2022/05/28 01:35:27;;;;;;;;;;;11.30;99.90;;;;;;4743013;30;19933;-90
2022/05/28 01:37:53;;;;;;;;;;;11.30;99.90;;;;;;4744492;30;19999;-89
2022/05/28 01:40:20;;;;;;;;;;;11.40;99.90;;;;;;4749827;30;20383;-90
2022/05/28 01:42:52;;;;;;;;;;;11.30;99.90;;;;;;4756838;30;19930;-89
2022/05/28 01:45:21;;;;;;;;;;;11.30;99.90;;;;;;4749822;30;19933;-89
2022/05/28 01:47:51;;;;;;;;;;;11.40;99.90;;;;;;4743078;30;19926;-89
2022/05/28 01:50:18;;;;;;;;;;;11.10;99.90;;;;;;4749851;30;19929;-90
2022/05/28 01:52:46;;;;;;;;;;;11.30;99.90;;;;;;4743386;30;20430;-88
2022/05/28 01:55:16;;;;;;;;;;;11.40;99.90;;;;;;4749783;30;19930;-88
2022/05/28 01:57:44;;;;;;;;;;;11.50;99.90;;;;;;4742621;30;19926;-89
2022/05/28 02:00:11;;;;;;;;;;;11.70;99.90;;;;;;4765379;30;19928;-90
2022/05/28 02:02:37;;;;;;;;;;;11.20;99.90;;;;;;4758146;30;20372;-88
2022/05/28 02:05:03;;;;;;;;;;;11.10;99.90;;;;;;4748462;30;20372;-88
2022/05/28 02:07:29;;;;;;;;;;;10.80;99.90;;;;;;4751989;30;19957;-88
2022/05/28 02:10:00;;;;;;;;;;;11.10;99.90;;;;;;4762761;30;20411;-89
2022/05/28 02:12:32;;;;;;;;;;;11.10;99.90;;;;;;4753215;30;19959;-88
2022/05/28 02:15:19;;;;;;;;;;;11.20;99.90;;;;;;4743052;30;19926;-90
2022/05/28 02:17:48;;;;;;;;;;;11.40;99.90;;;;;;4741770;30;19933;-89
2022/05/28 02:20:21;;;;;;;;;;;11.00;99.90;;;;;;4762223;30;20410;-88
2022/05/28 02:22:55;;;;;;;;;;;10.90;99.90;;;;;;4746718;30;19926;-89
2022/05/28 02:25:26;;;;;;;;;;;10.90;99.90;;;;;;4745741;30;19942;-90
2022/05/28 02:27:52;;;;;;;;;;;11.50;99.90;;;;;;4753956;30;19991;-89
2022/05/28 02:30:18;;;;;;;;;;;10.90;99.90;;;;;;4734121;30;20379;-90
2022/05/28 02:32:52;;;;;;;;;;;10.80;99.90;;;;;;4746812;30;19926;-88
2022/05/28 02:35:20;;;;;;;;;;;10.80;99.90;;;;;;4762632;30;19925;-89
2022/05/28 02:37:57;;;;;;;;;;;10.70;99.90;;;;;;4757831;30;19926;-88
2022/05/28 02:40:32;;;;;;;;;;;11.00;99.90;;;;;;4771448;30;20325;-89
2022/05/28 02:43:14;;;;;;;;;;;11.00;99.90;;;;;;4760182;30;19948;-89
2022/05/28 02:45:40;;;;;;;;;;;11.00;99.90;;;;;;4762684;30;19950;-88
2022/05/28 02:48:11;;;;;;;;;;;11.20;99.90;;;;;;4742950;30;19932;-89
2022/05/28 02:50:45;;;;;;;;;;;11.00;99.90;;;;;;4764201;30;19926;-88
2022/05/28 02:53:13;;;;;;;;;;;11.10;99.90;;;;;;4762030;30;19975;-88
2022/05/28 02:55:39;;;;;;;;;;;11.50;99.90;;;;;;4764408;30;20020;-89
2022/05/28 02:58:10;;;;;;;;;;;11.60;99.90;;;;;;4745844;30;19932;-88
2022/05/28 03:00:44;;;;;;;;;;;10.90;99.90;;;;;;4748510;30;20399;-90
2022/05/28 03:03:19;;;;;;;;;;;11.10;99.90;;;;;;4753305;30;19926;-88
2022/05/28 03:05:49;;;;;;;;;;;11.00;99.90;;;;;;4764811;30;19926;-88
2022/05/28 03:08:25;;;;;;;;;;;10.90;99.90;;;;;;4755409;30;19932;-89
2022/05/28 03:10:51;;;;;;;;;;;11.20;99.90;;;;;;4741356;30;19933;-89
2022/05/28 03:13:22;;;;;;;;;;;10.80;99.90;;;;;;4764061;30;19977;-89
2022/05/28 03:15:48;;;;;;;;;;;10.90;99.90;;;;;;4748359;30;20295;-88
2022/05/28 03:18:18;;;;;;;;;;;10.80;99.90;;;;;;4760023;30;19926;-88
2022/05/28 03:20:44;;;;;;;;;;;10.90;99.90;;;;;;4748424;30;20340;-88
2022/05/28 03:23:10;;;;;;;;;;;10.90;99.90;;;;;;4747693;30;20024;-89
2022/05/28 03:25:36;;;;;;;;;;;11.20;99.90;;;;;;4770146;30;19932;-88
2022/05/28 03:28:01;;;;;;;;;;;11.00;99.90;;;;;;4741703;30;19930;-87
2022/05/28 03:30:27;;;;;;;;;;;11.00;99.90;;;;;;4754570;30;19925;-88
2022/05/28 03:32:53;;;;;;;;;;;10.70;99.90;;;;;;4754262;30;19976;-87
2022/05/28 03:35:18;;;;;;;;;;;10.90;99.90;;;;;;4746380;30;19926;-89
2022/05/28 03:41:09;;;;;;;;;;;10.90;99.90;;;;;;4772287;30;19921;-89
2022/05/28 03:43:35;;;;;;;;;;;10.90;99.90;;;;;;4763221;30;19952;-90
2022/05/28 03:46:01;;;;;;;;;;;11.00;99.90;;;;;;4745380;30;19930;-88
2022/05/28 03:48:28;;;;;;;;;;;11.00;99.90;;;;;;4738231;30;19933;-88
2022/05/28 03:50:53;;;;;;;;;;;10.90;99.90;;;;;;4742997;30;19934;-88
2022/05/28 03:53:22;;;;;;;;;;;10.90;99.90;;;;;;4744959;30;19922;-89
2022/05/28 03:55:48;;;;;;;;;;;10.80;99.90;;;;;;4747806;30;20018;-90
2022/05/28 03:58:14;;;;;;;;;;;10.70;99.90;;;;;;4753198;30;20329;-89
2022/05/28 04:00:40;;;;;;;;;;;10.60;99.90;;;;;;4743723;30;19949;-88
2022/05/28 04:03:09;;;;;;;;;;;11.30;99.90;;;;;;4765220;30;20415;-88
2022/05/28 04:05:38;;;;;;;;;;;10.80;99.90;;;;;;4766008;30;19922;-88
2022/05/28 04:08:04;;;;;;;;;;;11.60;99.90;;;;;;4751739;30;20016;-88
2022/05/28 04:10:30;;;;;;;;;;;11.00;99.90;;;;;;4746093;30;19925;-88
2022/05/28 04:12:56;;;;;;;;;;;11.20;99.90;;;;;;4747563;30;19975;-88
2022/05/28 04:15:24;;;;;;;;;;;10.60;99.90;;;;;;4761768;30;20290;-88
2022/05/28 04:17:49;;;;;;;;;;;11.10;99.90;;;;;;4744374;30;19929;-88
2022/05/28 04:20:16;;;;;;;;;;;11.00;99.90;;;;;;4748742;30;20013;-88
2022/05/28 04:22:42;;;;;;;;;;;11.10;99.90;;;;;;4760106;30;20165;-89
2022/05/28 04:25:08;;;;;;;;;;;11.20;99.90;;;;;;4744241;30;20493;-88
2022/05/28 04:27:33;;;;;;;;;;;11.60;99.90;;;;;;4740240;30;19958;-89
2022/05/28 04:29:59;;;;;;;;;;;11.80;99.90;;;;;;4762051;30;19926;-88
2022/05/28 04:32:25;;;;;;;;;;;11.40;99.90;;;;;;4744931;30;19930;-88
2022/05/28 04:34:51;;;;;;;;;;;11.50;99.90;;;;;;4737136;30;19947;-88
2022/05/28 04:37:19;;;;;;;;;;;11.20;99.90;;;;;;4761651;30;19933;-87
2022/05/28 04:39:45;;;;;;;;;;;11.90;99.90;;;;;;4759429;30;19926;-87
2022/05/28 04:42:14;;;;;;;;;;;11.40;99.90;;;;;;4750819;30;19933;-89
2022/05/28 04:44:42;;;;;;;;;;;11.90;99.90;;;;;;4741129;30;20067;-89
2022/05/28 04:47:08;;;;;;;;;;;11.80;99.90;;;;;;4747028;30;19975;-89
2022/05/28 04:49:39;;;;;;;;;;;12.10;99.90;;;;;;4740430;30;19934;-88
2022/05/28 04:52:05;;;;;;;;;;;11.70;99.90;;;;;;4764638;30;20348;-90
2022/05/28 04:54:38;;;;;;;;;;;11.90;99.90;;;;;;4766363;30;20024;-89
2022/05/28 04:57:06;;;;;;;;;;;12.00;99.90;;;;;;4759597;30;19933;-87
2022/05/28 04:59:32;;;;;;;;;;;11.80;99.90;;;;;;4760369;30;19926;-88
2022/05/28 05:02:00;;;;;;;;;;;11.80;99.90;;;;;;4745224;30;19926;-88
2022/05/28 05:04:29;;;;;;;;;;;11.40;99.90;;;;;;4744194;30;19926;-88
2022/05/28 05:06:55;;;;;;;;;;;11.80;99.90;;;;;;4758865;30;20288;-88
2022/05/28 05:09:20;;;;;;;;;;;11.80;99.90;;;;;;4736245;30;19941;-89
2022/05/28 05:11:46;;;;;;;;;;;11.70;99.90;;;;;;4754043;30;19942;-89
2022/05/28 05:14:12;;;;;;;;;;;11.50;99.90;;;;;;4758176;30;19929;-89
2022/05/28 05:16:37;;;;;;;;;;;11.80;99.90;;;;;;4743912;30;19933;-89
2022/05/28 05:19:03;;;;;;;;;;;12.00;99.90;;;;;;4743939;30;19926;-88
2022/05/28 05:21:29;;;;;;;;;;;11.50;99.90;;;;;;4758382;30;19929;-89
2022/05/28 05:23:54;;;;;;;;;;;11.90;99.90;;;;;;4758282;30;20024;-88
2022/05/28 05:26:23;;;;;;;;;;;11.80;99.90;;;;;;4759740;30;19926;-89
2022/05/28 05:28:49;;;;;;;;;;;11.80;99.90;;;;;;4753381;30;19938;-89
2022/05/28 05:31:17;;;;;;;;;;;12.30;99.90;;;;;;4748160;30;20408;-90
2022/05/28 05:33:45;;;;;;;;;;;11.90;99.90;;;;;;4754897;30;19925;-88
2022/05/28 05:36:11;;;;;;;;;;;11.80;99.90;;;;;;4762104;30;19934;-89
2022/05/28 05:38:37;;;;;;;;;;;11.70;99.90;;;;;;4761969;30;20344;-88
2022/05/28 05:41:02;;;;;;;;;;;11.80;99.90;;;;;;4762842;30;20365;-88
2022/05/28 05:43:28;;;;;;;;;;;11.80;99.90;;;;;;4762095;30;19926;-88
2022/05/28 05:45:54;;;;;;;;;;;11.90;99.90;;;;;;4756220;30;19925;-88
2022/05/28 05:48:20;;;;;;;;;;;11.80;99.90;;;;;;4746371;30;19983;-88
2022/05/28 05:50:46;;;;;;;;;;;11.90;99.90;;;;;;4760316;30;20276;-88
2022/05/28 05:53:12;;;;;;;;;;;12.10;99.90;;;;;;4742975;30;20296;-87
2022/05/28 05:55:40;;;;;;;;;;;12.90;99.90;;;;;;4753958;30;20323;-88
2022/05/28 05:58:06;;;;;;;;;;;12.20;99.90;;;;;;4742388;30;19929;-88
2022/05/28 06:00:32;;;;;;;;;;;12.20;99.90;;;;;;4763489;30;19925;-91
2022/05/28 06:02:57;;;;;;;;;;;12.30;99.90;;;;;;4743780;30;19993;-86
2022/05/28 06:05:23;;;;;;;;;;;12.40;99.90;;;;;;4736892;30;19955;-86
2022/05/28 06:07:49;;;;;;;;;;;12.50;99.90;;;;;;4759091;30;19925;-88
2022/05/28 06:10:16;;;;;;;;;;;12.50;99.90;;;;;;4743660;30;19926;-89
2022/05/28 06:12:42;;;;;;;;;;;12.70;99.90;;;;;;4743217;30;19979;-86
2022/05/28 06:15:08;;;;;;;;;;;12.60;99.90;;;;;;4746519;30;20020;-86
2022/05/28 06:17:35;;;;;;;;;;;12.70;99.90;;;;;;4757333;30;20005;-86
2022/05/28 06:20:04;;;;;;;;;;;12.80;99.90;;;;;;4758134;30;19933;-86
2022/05/28 06:22:30;;;;;;;;;;;12.80;99.90;;;;;;4764842;30;19926;-85
2022/05/28 06:24:56;;;;;;;;;;;12.60;99.90;;;;;;4741701;30;19926;-87
2022/05/28 06:27:22;;;;;;;;;;;12.40;99.90;;;;;;4748843;30;20012;-86
2022/05/28 06:29:47;;;;;;;;;;;12.40;99.90;;;;;;4741928;30;20060;-87
2022/05/28 06:32:13;;;;;;;;;;;12.50;99.90;;;;;;4749312;30;19975;-85
2022/05/28 06:34:39;;;;;;;;;;;12.60;99.90;;;;;;4758762;30;20363;-85
2022/05/28 06:37:08;;;;;;;;;;;12.80;99.90;;;;;;4763804;30;19930;-86
2022/05/28 06:39:35;;;;;;;;;;;12.90;99.90;;;;;;4759633;30;20338;-85
2022/05/28 06:42:00;;;;;;;;;;;13.10;99.90;;;;;;4763044;30;20046;-85
2022/05/28 06:44:26;;;;;;;;;;;13.10;99.90;;;;;;4760820;30;20358;-85
2022/05/28 06:46:52;;;;;;;;;;;13.20;99.90;;;;;;4761870;30;19926;-85
2022/05/28 06:49:17;;;;;;;;;;;12.70;99.90;;;;;;4764526;30;20024;-87
2022/05/28 06:51:43;;;;;;;;;;;13.30;99.90;;;;;;4764574;30;19933;-86
2022/05/28 06:54:09;;;;;;;;;;;13.20;99.90;;;;;;4761140;30;19926;-86
2022/05/28 06:56:35;;;;;;;;;;;13.30;99.90;;;;;;4761510;30;19945;-87
2022/05/28 06:59:00;;;;;;;;;;;13.50;99.90;;;;;;4761798;30;19964;-86
2022/05/28 07:01:26;;;;;;;;;;;14.30;99.90;;;;;;4761517;30;20308;-85
2022/05/28 07:03:52;;;;;;;;;;;13.70;99.90;;;;;;4765788;30;19925;-86
2022/05/28 07:06:17;;;;;;;;;;;13.90;99.90;;;;;;4770557;30;20009;-85
2022/05/28 07:08:45;;;;;;;;;;;14.10;99.90;;;;;;4772531;30;19926;-90
2022/05/28 07:11:11;;;;;;;;;;;13.80;99.90;;;;;;4774269;30;19929;-85
2022/05/28 07:13:37;;;;;;;;;;;14.20;99.90;;;;;;4748749;30;19965;-86
2022/05/28 07:16:05;;;;;;;;;;;14.10;99.90;;;;;;4750694;30;19926;-88
2022/05/28 07:18:31;;;;;;;;;;;14.20;99.90;;;;;;4766604;30;20030;-87
2022/05/28 07:20:57;;;;;;;;;;;14.10;99.90;;;;;;4751514;30;19928;-86
2022/05/28 07:23:24;;;;;;;;;;;14.10;99.90;;;;;;4748078;30;19927;-86
2022/05/28 07:25:53;;;;;;;;;;;14.40;99.90;;;;;;4757016;30;19926;-87
2022/05/28 07:28:24;;;;;;;;;;;14.20;99.90;;;;;;4749862;30;20025;-87
2022/05/28 07:31:00;;;;;;;;;;;14.10;99.90;;;;;;4744757;30;19932;-87
2022/05/28 07:33:27;;;;;;;;;;;14.30;99.90;;;;;;4745073;30;19933;-87
2022/05/28 07:35:54;;;;;;;;;;;13.50;99.90;;;;;;4737880;30;19926;-88
2022/05/28 07:38:19;;;;;;;;;;;13.50;99.90;;;;;;4749196;30;19922;-87
2022/05/28 07:40:45;;;;;;;;;;;13.40;99.90;;;;;;4742713;30;20299;-88
2022/05/28 07:43:11;;;;;;;;;;;13.60;99.90;;;;;;4753995;30;20032;-88
2022/05/28 07:45:37;;;;;;;;;;;14.00;99.90;;;;;;4763922;30;19981;-88
2022/05/28 07:48:03;;;;;;;;;;;13.90;99.90;;;;;;4745969;30;20347;-87
2022/05/28 07:50:29;;;;;;;;;;;13.80;99.90;;;;;;4747820;30;20020;-87
2022/05/28 07:53:15;;;;;;;;;;;13.40;99.90;;;;;;4756395;30;19930;-90
2022/05/28 07:55:42;;;;;;;;;;;13.80;99.90;;;;;;4742702;30;19975;-89
2022/05/28 07:58:14;;;;;;;;;;;13.90;99.90;;;;;;4753343;30;19932;-86
2022/05/28 08:00:41;;;;;;;;;;;14.10;99.90;;;;;;4765495;30;20342;-87
2022/05/28 08:03:07;;;;;;;;;;;14.40;99.90;;;;;;4746721;30;20371;-89
2022/05/28 08:05:33;;;;;;;;;;;14.30;99.90;;;;;;4758389;30;19940;-87
2022/05/28 08:07:58;;;;;;;;;;;14.30;99.90;;;;;;4755528;30;19926;-85
2022/05/28 08:10:24;;;;;;;;;;;14.30;99.90;;;;;;4766132;30;19926;-88
2022/05/28 08:12:50;;;;;;;;;;;14.30;99.90;;;;;;4760242;30;19922;-86
2022/05/28 08:15:15;;;;;;;;;;;14.30;99.90;;;;;;4761626;30;20395;-88
2022/05/28 08:17:41;;;;;;;;;;;14.70;99.90;;;;;;4758835;30;19937;-86
2022/05/28 08:20:07;;;;;;;;;;;14.70;99.90;;;;;;4759155;30;19926;-87
2022/05/28 08:25:17;;;;;;;;;;;14.90;99.90;;;;;;4745955;30;19933;-86
2022/05/28 08:27:46;;;;;;;;;;;15.10;99.90;;;;;;4746704;30;19926;-88
2022/05/28 08:30:15;;;;;;;;;;;15.10;99.90;;;;;;4739907;30;19927;-88
2022/05/28 08:32:43;;;;;;;;;;;15.10;99.90;;;;;;4761797;30;19948;-88
2022/05/28 08:35:09;;;;;;;;;;;15.00;99.90;;;;;;4742136;30;20431;-86
2022/05/28 08:37:34;;;;;;;;;;;15.10;99.90;;;;;;4762315;30;19932;-85
2022/05/28 08:40:00;;;;;;;;;;;14.90;99.90;;;;;;4758641;30;19926;-85
2022/05/28 08:42:27;;;;;;;;;;;15.00;99.90;;;;;;4742117;30;19932;-86
2022/05/28 08:44:54;;;;;;;;;;;15.00;99.90;;;;;;4747899;30;20014;-86
2022/05/28 08:47:21;;;;;;;;;;;15.00;99.90;;;;;;4764865;30;19932;-86
2022/05/28 08:49:48;;;;;;;;;;;15.10;99.90;;;;;;4768981;30;19926;-87
2022/05/28 08:52:16;;;;;;;;;;;15.40;99.90;;;;;;4745926;30;19926;-85
2022/05/28 08:54:59;;;;;;;;;;;15.40;99.90;;;;;;4770318;30;20310;-87
2022/05/28 08:57:28;;;;;;;;;;;15.50;99.90;;;;;;4759506;30;20423;-85
2022/05/28 08:59:58;;;;;;;;;;;15.50;99.90;;;;;;4743772;30;19925;-85
2022/05/28 09:02:38;;;;;;;;;;;15.70;99.90;;;;;;4755411;30;19932;-86
2022/05/28 09:05:06;;;;;;;;;;;15.40;99.90;;;;;;4757977;30;19926;-85
2022/05/28 09:07:32;;;;;;;;;;;15.60;99.90;;;;;;4742915;30;19930;-85
2022/05/28 09:09:57;;;;;;;;;;;15.60;99.90;;;;;;4738345;30;19925;-84
2022/05/28 09:12:41;;;;;;;;;;;15.70;99.90;;;;;;4762925;30;20384;-85
2022/05/28 09:15:07;;;;;;;;;;;15.60;99.90;;;;;;4738023;30;19926;-84
2022/05/28 09:17:39;;;;;;;;;;;15.60;99.90;;;;;;4746483;30;20393;-84
2022/05/28 09:20:10;;;;;;;;;;;15.20;99.90;;;;;;4745522;30;20363;-87
2022/05/28 09:22:37;;;;;;;;;;;15.30;99.90;;;;;;4739889;30;19929;-87
2022/05/28 09:25:03;;;;;;;;;;;15.40;99.90;;;;;;4762548;30;19921;-86
2022/05/28 09:27:30;;;;;;;;;;;15.70;99.90;;;;;;4759497;30;20406;-88
2022/05/28 09:30:14;;;;;;;;;;;15.90;99.90;;;;;;4764226;30;19972;-86
2022/05/28 09:32:55;;;;;;;;;;;16.10;99.90;;;;;;4744550;30;19926;-89
2022/05/28 09:35:39;;;;;;;;;;;15.90;99.90;;;;;;4743883;30;19933;-87
2022/05/28 09:38:08;;;;;;;;;;;15.60;99.90;;;;;;4757676;30;19983;-87
2022/05/28 09:40:34;;;;;;;;;;;15.40;99.90;;;;;;4745648;30;19933;-87
2022/05/28 09:43:09;;;;;;;;;;;15.80;99.90;;;;;;4744734;30;20352;-88
2022/05/28 09:45:48;;;;;;;;;;;15.80;99.90;;;;;;4744538;30;20395;-87
2022/05/28 09:48:21;;;;;;;;;;;15.90;99.90;;;;;;4762257;30;19959;-89
2022/05/28 09:50:47;;;;;;;;;;;16.20;98.90;;;;;;4761711;30;19976;-86
2022/05/28 09:56:21;;;;;;;;;;;16.10;97.40;;;;;;4765670;30;19925;-88
2022/05/28 09:58:47;;;;;;;;;;;15.80;98.30;;;;;;4747185;30;20375;-87
2022/05/28 10:01:18;;;;;;;;;;;15.80;98.60;;;;;;4762489;30;19926;-88
2022/05/28 10:06:32;;;;;;;;;;;16.20;99.00;;;;;;4744070;30;19929;-88
2022/05/28 10:08:58;;;;;;;;;;;16.50;94.30;;;;;;4755266;30;19977;-88
2022/05/28 10:11:27;;;;;;;;;;;16.30;95.70;;;;;;4769817;30;20015;-91
2022/05/28 10:13:54;;;;;;;;;;;15.90;95.10;;;;;;4769624;30;19926;-89
2022/05/28 10:16:46;;;;;;;;;;;15.80;96.40;;;;;;4754648;30;19926;-90
2022/05/28 10:19:24;;;;;;;;;;;16.00;97.80;;;;;;4754818;30;19926;-90
2022/05/28 10:21:52;;;;;;;;;;;16.00;98.00;;;;;;4755731;30;20348;-90
2022/05/28 10:24:18;;;;;;;;;;;15.50;97.50;;;;;;4754526;30;20385;-90
2022/05/28 10:26:53;;;;;;;;;;;16.20;97.50;;;;;;4769168;30;20290;-90
2022/05/28 10:29:20;;;;;;;;;;;16.30;96.50;;;;;;4756953;30;20364;-90
2022/05/28 10:31:52;;;;;;;;;;;16.20;96.50;;;;;;4773377;30;19926;-89
2022/05/28 10:34:34;;;;;;;;;;;16.30;97.90;;;;;;4757707;30;20013;-91
2022/05/28 10:37:15;;;;;;;;;;;16.30;96.50;;;;;;4757709;30;19972;-90
2022/05/28 10:39:49;;;;;;;;;;;16.40;93.80;;;;;;4771954;30;19972;-89
2022/05/28 10:42:16;;;;;;;;;;;16.10;94.70;;;;;;4757144;30;20021;-89
2022/05/28 10:44:52;;;;;;;;;;;15.90;96.10;;;;;;4772906;30;19930;-89
2022/05/28 10:47:39;;;;;;;;;;;16.20;97.10;;;;;;4771800;30;19926;-89
2022/05/28 10:50:11;;;;;;;;;;;16.50;97.00;;;;;;4757059;30;19925;-90
2022/05/28 10:52:52;;;;;;;;;;;16.60;95.10;;;;;;4756715;30;19926;-89
2022/05/28 10:55:29;;;;;;;;;;;16.50;96.10;;;;;;4757110;30;20070;-90
2022/05/28 10:58:04;;;;;;;;;;;16.40;97.40;;;;;;4759146;30;20025;-90
2022/05/28 11:00:48;;;;;;;;;;;16.40;97.00;;;;;;4758260;30;19929;-89
2022/05/28 11:03:38;;;;;;;;;;;16.30;98.80;;;;;;4774235;30;19926;-89
2022/05/28 11:06:07;;;;;;;;;;;16.60;94.80;;;;;;4758570;30;19926;-89
2022/05/28 11:08:51;;;;;;;;;;;16.40;95.00;;;;;;4758774;30;19932;-89
2022/05/28 11:11:23;;;;;;;;;;;16.70;93.60;;;;;;4757893;30;19932;-91
2022/05/28 11:13:51;;;;;;;;;;;16.30;95.20;;;;;;4756853;30;19925;-88
2022/05/28 11:16:28;;;;;;;;;;;15.90;96.80;;;;;;4772599;30;20399;-89
2022/05/28 11:19:13;;;;;;;;;;;16.40;97.10;;;;;;4757028;30;19926;-89
2022/05/28 11:21:51;;;;;;;;;;;16.20;97.00;;;;;;4772772;30;20295;-89
2022/05/28 11:24:19;;;;;;;;;;;16.60;98.20;;;;;;4756780;30;19933;-89
2022/05/28 11:27:00;;;;;;;;;;;16.70;97.30;;;;;;4756405;30;19926;-90
2022/05/28 11:29:39;;;;;;;;;;;16.60;97.10;;;;;;4756104;30;19987;-88
2022/05/28 11:32:09;;;;;;;;;;;16.80;96.90;;;;;;4770715;30;20024;-89
2022/05/28 11:34:40;;;;;;;;;;;16.90;94.40;;;;;;4770986;30;19933;-89
2022/05/28 11:37:22;;;;;;;;;;;17.20;94.50;;;;;;4772071;30;19929;-89
2022/05/28 11:39:55;;;;;;;;;;;17.50;95.30;;;;;;4756107;30;19926;-90
2022/05/28 11:42:21;;;;;;;;;;;17.60;93.70;;;;;;4756543;30;19930;-90
2022/05/28 11:44:52;;;;;;;;;;;17.30;93.60;;;;;;4756629;30;20288;-90
2022/05/28 11:47:18;;;;;;;;;;;17.10;94.50;;;;;;4765679;30;19925;-89
2022/05/28 11:52:45;;;;;;;;;;;16.50;97.40;;;;;;4771958;30;19925;-89
2022/05/28 11:55:20;;;;;;;;;;;16.40;99.20;;;;;;4756000;30;20524;-89
2022/05/28 11:57:58;;;;;;;;;;;16.00;99.90;;;;;;4756175;30;19965;-90
2022/05/28 12:00:25;;;;;;;;;;;15.90;99.90;;;;;;4773171;30;19951;-90
2022/05/28 12:02:55;;;;;;;;;;;15.80;99.90;;;;;;4773326;30;19973;-89
2022/05/28 12:05:23;;;;;;;;;;;16.40;99.90;;;;;;4771618;30;19929;-89
2022/05/28 12:07:59;;;;;;;;;;;16.40;99.90;;;;;;4771815;30;19936;-89
2022/05/28 12:10:31;;;;;;;;;;;16.40;99.90;;;;;;4755762;30;20398;-89
2022/05/28 12:12:58;;;;;;;;;;;16.50;99.80;;;;;;4771901;30;19933;-89
2022/05/28 12:15:26;;;;;;;;;;;16.40;99.90;;;;;;4756304;30;20310;-89
2022/05/28 12:18:06;;;;;;;;;;;16.50;99.80;;;;;;4770039;30;20040;-89
2022/05/28 12:20:34;;;;;;;;;;;16.00;99.90;;;;;;4755731;30;19925;-89
2022/05/28 12:23:03;;;;;;;;;;;16.00;99.90;;;;;;4758466;30;19926;-89
2022/05/28 12:25:32;;;;;;;;;;;16.10;99.90;;;;;;4758861;30;19932;-89
2022/05/28 12:28:02;;;;;;;;;;;15.90;99.90;;;;;;4775728;30;20379;-88
2022/05/28 12:30:39;;;;;;;;;;;15.80;99.90;;;;;;4759894;30;19933;-90
2022/05/28 12:33:17;;;;;;;;;;;15.90;99.90;;;;;;4773574;30;19926;-90
2022/05/28 12:35:48;;;;;;;;;;;16.30;99.70;;;;;;4755553;30;19975;-89
2022/05/28 12:38:18;;;;;;;;;;;16.10;99.90;;;;;;4755672;30;19929;-89
2022/05/28 12:40:57;;;;;;;;;;;16.10;99.90;;;;;;4755150;30;19925;-90
2022/05/28 12:43:36;;;;;;;;;;;15.90;99.90;;;;;;4755038;30;19926;-89
2022/05/28 12:46:39;;;;;;;;;;;16.10;99.70;;;;;;4755555;30;19936;-89
2022/05/28 12:49:09;;;;;;;;;;;15.80;99.70;;;;;;4733510;30;19926;-89
2022/05/28 12:51:50;;;;;;;;;;;15.50;99.90;;;;;;4719197;30;19969;-89
2022/05/28 12:54:24;;;;;;;;;;;16.30;99.90;;;;;;4733394;30;19927;-90
2022/05/28 12:57:03;;;;;;;;;;;16.00;99.80;;;;;;4733671;30;19926;-89
2022/05/28 12:59:31;;;;;;;;;;;17.00;96.80;;;;;;4719157;30;19927;-89
2022/05/28 13:02:03;;;;;;;;;;;17.30;96.20;;;;;;4733534;30;19933;-89
2022/05/28 13:04:30;;;;;;;;;;;17.40;95.40;;;;;;4718591;30;19922;-89
2022/05/28 13:06:58;;;;;;;;;;;17.90;95.10;;;;;;4733461;30;19949;-89
2022/05/28 13:09:27;;;;;;;;;;;18.20;93.30;;;;;;4733434;30;19969;-89
2022/05/28 13:12:02;;;;;;;;;;;18.30;91.50;;;;;;4718612;30;19926;-89
2022/05/28 13:14:29;;;;;;;;;;;18.00;91.40;;;;;;4718366;30;20376;-88
2022/05/28 13:16:58;;;;;;;;;;;17.70;92.10;;;;;;4718572;30;20411;-89
2022/05/28 13:19:23;;;;;;;;;;;17.50;93.10;;;;;;4718609;30;19977;-88
2022/05/28 13:21:58;;;;;;;;;;;17.90;94.10;;;;;;4719131;30;19982;-89
2022/05/28 13:24:44;;;;;;;;;;;18.20;91.70;;;;;;4769372;30;20295;-90
2022/05/28 13:27:16;;;;;;;;;;;18.30;90.30;;;;;;4766587;30;20380;-89
2022/05/28 13:29:42;;;;;;;;;;;17.90;90.50;;;;;;4756625;30;20295;-89
2022/05/28 13:32:07;;;;;;;;;;;17.40;90.70;;;;;;4770352;30;19965;-90
2022/05/28 13:34:33;;;;;;;;;;;17.30;91.20;;;;;;4755455;30;19933;-89
2022/05/28 13:36:59;;;;;;;;;;;17.10;92.40;;;;;;4755603;30;19937;-90
2022/05/28 13:39:28;;;;;;;;;;;17.20;91.30;;;;;;4770595;30;19988;-90
2022/05/28 13:41:55;;;;;;;;;;;17.10;91.80;;;;;;4756593;30;19980;-90
2022/05/28 13:44:27;;;;;;;;;;;17.00;92.80;;;;;;4754964;30;20398;-86
2022/05/28 13:47:01;;;;;;;;;;;17.10;93.00;;;;;;4746185;30;20368;-84
2022/05/28 13:49:29;;;;;;;;;;;17.00;94.00;;;;;;4749119;30;20303;-87
2022/05/28 13:52:02;;;;;;;;;;;16.40;96.10;;;;;;4752623;30;19926;-87
2022/05/28 13:54:28;;;;;;;;;;;16.30;97.10;;;;;;4754772;30;19933;-89
2022/05/28 13:57:02;;;;;;;;;;;16.60;97.20;;;;;;4752187;30;19925;-88
2022/05/28 13:59:33;;;;;;;;;;;16.00;98.70;;;;;;4754855;30;19922;-90
2022/05/28 14:01:59;;;;;;;;;;;15.90;99.90;;;;;;4757927;30;20002;-87
2022/05/28 14:04:29;;;;;;;;;;;15.70;99.90;;;;;;4773785;30;19971;-84
2022/05/28 14:06:57;;;;;;;;;;;15.30;99.90;;;;;;4757349;30;19929;-85
2022/05/28 14:09:28;;;;;;;;;;;15.00;99.90;;;;;;4765564;30;19925;-88
2022/05/28 14:11:54;;;;;;;;;;;15.00;99.90;;;;;;4761572;30;19930;-86
2022/05/28 14:14:29;;;;;;;;;;;15.00;99.90;;;;;;4761405;30;19932;-87
2022/05/28 14:16:59;;;;;;;;;;;14.40;99.90;;;;;;4762432;30;19952;-85
2022/05/28 14:19:26;;;;;;;;;;;14.40;99.90;;;;;;4746168;30;20407;-84
2022/05/28 14:21:53;;;;;;;;;;;13.90;99.90;;;;;;4747353;30;20437;-84
2022/05/28 14:24:25;;;;;;;;;;;14.40;99.90;;;;;;4761599;30;19957;-84
2022/05/28 14:26:52;;;;;;;;;;;14.60;99.90;;;;;;4762325;30;19975;-85
2022/05/28 14:29:20;;;;;;;;;;;14.90;99.90;;;;;;4762764;30;19940;-87
2022/05/28 14:31:46;;;;;;;;;;;14.80;99.90;;;;;;4764749;30;19926;-86
2022/05/28 14:34:14;;;;;;;;;;;14.90;99.90;;;;;;4748592;30;19977;-84
2022/05/28 14:36:47;;;;;;;;;;;15.10;99.90;;;;;;4765069;30;20367;-85
2022/05/28 14:39:14;;;;;;;;;;;15.40;99.90;;;;;;4765076;30;19926;-85
2022/05/28 14:41:44;;;;;;;;;;;15.50;99.90;;;;;;4749504;30;19925;-86
2022/05/28 14:44:21;;;;;;;;;;;15.70;99.90;;;;;;4763454;30;19925;-86
2022/05/28 14:46:47;;;;;;;;;;;15.60;99.90;;;;;;4746782;30;20012;-86
2022/05/28 14:49:30;;;;;;;;;;;15.40;99.90;;;;;;4747428;30;20384;-86
2022/05/28 14:51:58;;;;;;;;;;;15.50;99.90;;;;;;4765940;30;19934;-86